sensor_id;sensor_type;location;lat;lon;timestamp;P1;durP1;ratioP1;P2;durP2;ratioP2
73599;SDS011;61877;48.246;9.220;2023-04-06T00:01:25;16.77;;;9.23;;
73599;SDS011;61877;48.246;9.220;2023-04-06T00:03:50;18.02;;;9.40;;
73599;SDS011;61877;48.246;9.220;2023-04-06T00:06:16;16.80;;;8.83;;
73599;SDS011;61877;48.246;9.220;2023-04-06T00:08:41;18.05;;;9.00;;
73599;SDS011;61877;48.246;9.220;2023-04-06T00:11:07;15.82;;;8.88;;
73599;SDS011;61877;48.246;9.220;2023-04-06T00:13:34;18.37;;;9.63;;
73599;SDS011;61877;48.246;9.220;2023-04-06T00:16:00;17.70;;;9.63;;
73599;SDS011;61877;48.246;9.220;2023-04-06T00:18:26;16.97;;;8.63;;
73599;SDS011;61877;48.246;9.220;2023-04-06T00:20:53;16.88;;;8.32;;
73599;SDS011;61877;48.246;9.220;2023-04-06T00:23:19;17.87;;;9.00;;
73599;SDS011;61877;48.246;9.220;2023-04-06T00:25:45;19.27;;;9.90;;
73599;SDS011;61877;48.246;9.220;2023-04-06T00:28:10;18.03;;;9.17;;
73599;SDS011;61877;48.246;9.220;2023-04-06T00:30:35;17.27;;;8.87;;
73599;SDS011;61877;48.246;9.220;2023-04-06T00:33:01;20.47;;;10.07;;
73599;SDS011;61877;48.246;9.220;2023-04-06T00:35:28;18.60;;;9.63;;
73599;SDS011;61877;48.246;9.220;2023-04-06T00:37:54;18.30;;;9.48;;
73599;SDS011;61877;48.246;9.220;2023-04-06T00:40:20;17.97;;;9.43;;
73599;SDS011;61877;48.246;9.220;2023-04-06T00:42:45;19.30;;;9.10;;
73599;SDS011;61877;48.246;9.220;2023-04-06T00:45:11;19.90;;;9.77;;
73599;SDS011;61877;48.246;9.220;2023-04-06T00:47:36;18.97;;;10.03;;
73599;SDS011;61877;48.246;9.220;2023-04-06T00:50:04;17.40;;;9.32;;
73599;SDS011;61877;48.246;9.220;2023-04-06T00:52:31;17.02;;;9.45;;
73599;SDS011;61877;48.246;9.220;2023-04-06T00:54:58;17.63;;;9.63;;
73599;SDS011;61877;48.246;9.220;2023-04-06T00:57:23;19.10;;;10.10;;
73599;SDS011;61877;48.246;9.220;2023-04-06T00:59:49;19.00;;;9.63;;
73599;SDS011;61877;48.246;9.220;2023-04-06T01:02:16;19.63;;;10.25;;
73599;SDS011;61877;48.246;9.220;2023-04-06T01:04:42;22.15;;;9.82;;
73599;SDS011;61877;48.246;9.220;2023-04-06T01:07:09;19.37;;;9.73;;
73599;SDS011;61877;48.246;9.220;2023-04-06T01:09:36;18.88;;;10.32;;
73599;SDS011;61877;48.246;9.220;2023-04-06T01:12:01;20.02;;;10.20;;
73599;SDS011;61877;48.246;9.220;2023-04-06T01:14:30;21.40;;;10.43;;
73599;SDS011;61877;48.246;9.220;2023-04-06T01:16:58;19.98;;;10.50;;
73599;SDS011;61877;48.246;9.220;2023-04-06T01:19:24;19.63;;;10.10;;
73599;SDS011;61877;48.246;9.220;2023-04-06T01:21:50;20.73;;;10.50;;
73599;SDS011;61877;48.246;9.220;2023-04-06T01:24:17;18.30;;;10.07;;
73599;SDS011;61877;48.246;9.220;2023-04-06T01:26:45;20.88;;;9.70;;
73599;SDS011;61877;48.246;9.220;2023-04-06T01:29:11;20.03;;;9.07;;
73599;SDS011;61877;48.246;9.220;2023-04-06T01:31:39;18.70;;;9.90;;
73599;SDS011;61877;48.246;9.220;2023-04-06T01:34:05;18.58;;;9.68;;
73599;SDS011;61877;48.246;9.220;2023-04-06T01:36:30;18.97;;;10.20;;
73599;SDS011;61877;48.246;9.220;2023-04-06T01:38:56;20.93;;;10.37;;
73599;SDS011;61877;48.246;9.220;2023-04-06T01:41:23;17.90;;;9.63;;
73599;SDS011;61877;48.246;9.220;2023-04-06T01:43:49;18.15;;;9.38;;
73599;SDS011;61877;48.246;9.220;2023-04-06T01:46:15;19.17;;;9.57;;
73599;SDS011;61877;48.246;9.220;2023-04-06T01:48:40;19.00;;;9.90;;
73599;SDS011;61877;48.246;9.220;2023-04-06T01:51:08;17.08;;;9.38;;
73599;SDS011;61877;48.246;9.220;2023-04-06T01:53:35;20.13;;;10.37;;
73599;SDS011;61877;48.246;9.220;2023-04-06T01:56:00;19.30;;;10.07;;
73599;SDS011;61877;48.246;9.220;2023-04-06T01:58:29;19.07;;;9.77;;
73599;SDS011;61877;48.246;9.220;2023-04-06T02:00:56;17.98;;;9.27;;
73599;SDS011;61877;48.246;9.220;2023-04-06T02:03:21;18.88;;;9.60;;
73599;SDS011;61877;48.246;9.220;2023-04-06T02:05:47;18.63;;;9.57;;
73599;SDS011;61877;48.246;9.220;2023-04-06T02:08:13;18.13;;;9.60;;
73599;SDS011;61877;48.246;9.220;2023-04-06T02:10:40;17.60;;;9.20;;
73599;SDS011;61877;48.246;9.220;2023-04-06T02:13:05;18.48;;;9.55;;
73599;SDS011;61877;48.246;9.220;2023-04-06T02:15:34;17.70;;;9.10;;
73599;SDS011;61877;48.246;9.220;2023-04-06T02:17:59;18.95;;;9.68;;
73599;SDS011;61877;48.246;9.220;2023-04-06T02:20:25;19.57;;;9.67;;
73599;SDS011;61877;48.246;9.220;2023-04-06T02:22:50;17.63;;;9.40;;
73599;SDS011;61877;48.246;9.220;2023-04-06T02:25:16;17.73;;;9.10;;
73599;SDS011;61877;48.246;9.220;2023-04-06T02:27:45;18.05;;;8.88;;
73599;SDS011;61877;48.246;9.220;2023-04-06T02:30:11;18.55;;;9.73;;
73599;SDS011;61877;48.246;9.220;2023-04-06T02:32:39;17.90;;;9.03;;
73599;SDS011;61877;48.246;9.220;2023-04-06T02:35:07;19.13;;;9.65;;
73599;SDS011;61877;48.246;9.220;2023-04-06T02:37:33;16.85;;;9.50;;
73599;SDS011;61877;48.246;9.220;2023-04-06T02:39:59;17.27;;;9.27;;
73599;SDS011;61877;48.246;9.220;2023-04-06T02:42:27;16.80;;;9.50;;
73599;SDS011;61877;48.246;9.220;2023-04-06T02:44:53;17.58;;;9.60;;
73599;SDS011;61877;48.246;9.220;2023-04-06T02:47:19;16.47;;;9.33;;
73599;SDS011;61877;48.246;9.220;2023-04-06T02:49:46;17.80;;;9.52;;
73599;SDS011;61877;48.246;9.220;2023-04-06T02:52:12;16.75;;;9.15;;
73599;SDS011;61877;48.246;9.220;2023-04-06T02:54:37;17.90;;;9.80;;
73599;SDS011;61877;48.246;9.220;2023-04-06T02:57:03;18.02;;;9.20;;
73599;SDS011;61877;48.246;9.220;2023-04-06T02:59:29;18.33;;;9.73;;
73599;SDS011;61877;48.246;9.220;2023-04-06T03:01:54;17.77;;;10.03;;
73599;SDS011;61877;48.246;9.220;2023-04-06T03:04:20;19.05;;;10.18;;
73599;SDS011;61877;48.246;9.220;2023-04-06T03:06:46;17.70;;;9.13;;
73599;SDS011;61877;48.246;9.220;2023-04-06T03:09:12;17.58;;;9.80;;
73599;SDS011;61877;48.246;9.220;2023-04-06T03:11:37;20.77;;;10.00;;
73599;SDS011;61877;48.246;9.220;2023-04-06T03:14:04;17.75;;;9.85;;
73599;SDS011;61877;48.246;9.220;2023-04-06T03:16:30;18.70;;;9.70;;
73599;SDS011;61877;48.246;9.220;2023-04-06T03:18:55;16.33;;;9.10;;
73599;SDS011;61877;48.246;9.220;2023-04-06T03:21:24;17.38;;;9.20;;
73599;SDS011;61877;48.246;9.220;2023-04-06T03:23:51;17.63;;;9.10;;
73599;SDS011;61877;48.246;9.220;2023-04-06T03:26:17;18.17;;;9.82;;
73599;SDS011;61877;48.246;9.220;2023-04-06T03:28:45;19.43;;;9.57;;
73599;SDS011;61877;48.246;9.220;2023-04-06T03:31:10;17.63;;;9.52;;
73599;SDS011;61877;48.246;9.220;2023-04-06T03:33:36;17.33;;;8.87;;
73599;SDS011;61877;48.246;9.220;2023-04-06T03:36:01;19.42;;;9.73;;
73599;SDS011;61877;48.246;9.220;2023-04-06T03:38:27;19.40;;;9.57;;
73599;SDS011;61877;48.246;9.220;2023-04-06T03:40:53;17.43;;;9.40;;
73599;SDS011;61877;48.246;9.220;2023-04-06T03:43:19;20.23;;;9.65;;
73599;SDS011;61877;48.246;9.220;2023-04-06T03:45:45;17.67;;;9.00;;
73599;SDS011;61877;48.246;9.220;2023-04-06T03:48:10;19.37;;;9.10;;
73599;SDS011;61877;48.246;9.220;2023-04-06T03:50:35;17.20;;;9.47;;
73599;SDS011;61877;48.246;9.220;2023-04-06T03:53:01;18.93;;;9.03;;
73599;SDS011;61877;48.246;9.220;2023-04-06T03:55:26;18.52;;;9.30;;
73599;SDS011;61877;48.246;9.220;2023-04-06T03:57:53;18.37;;;9.60;;
73599;SDS011;61877;48.246;9.220;2023-04-06T04:00:19;18.10;;;9.80;;
73599;SDS011;61877;48.246;9.220;2023-04-06T04:02:45;19.07;;;9.73;;
73599;SDS011;61877;48.246;9.220;2023-04-06T04:05:14;20.30;;;10.63;;
73599;SDS011;61877;48.246;9.220;2023-04-06T04:07:40;21.58;;;10.10;;
73599;SDS011;61877;48.246;9.220;2023-04-06T04:10:05;19.27;;;9.95;;
73599;SDS011;61877;48.246;9.220;2023-04-06T04:12:33;19.90;;;10.00;;
73599;SDS011;61877;48.246;9.220;2023-04-06T04:15:02;19.38;;;10.52;;
73599;SDS011;61877;48.246;9.220;2023-04-06T04:17:29;18.10;;;9.27;;
73599;SDS011;61877;48.246;9.220;2023-04-06T04:19:56;20.42;;;9.68;;
73599;SDS011;61877;48.246;9.220;2023-04-06T04:22:21;18.57;;;10.03;;
73599;SDS011;61877;48.246;9.220;2023-04-06T04:24:47;17.83;;;9.95;;
73599;SDS011;61877;48.246;9.220;2023-04-06T04:27:12;19.37;;;9.93;;
73599;SDS011;61877;48.246;9.220;2023-04-06T04:29:39;20.52;;;9.88;;
73599;SDS011;61877;48.246;9.220;2023-04-06T04:32:09;20.53;;;10.87;;
73599;SDS011;61877;48.246;9.220;2023-04-06T04:34:34;21.20;;;11.02;;
73599;SDS011;61877;48.246;9.220;2023-04-06T04:37:02;18.73;;;10.37;;
73599;SDS011;61877;48.246;9.220;2023-04-06T04:39:30;22.17;;;10.30;;
73599;SDS011;61877;48.246;9.220;2023-04-06T04:41:56;21.60;;;10.23;;
73599;SDS011;61877;48.246;9.220;2023-04-06T04:44:23;20.35;;;10.50;;
73599;SDS011;61877;48.246;9.220;2023-04-06T04:46:49;19.08;;;9.93;;
73599;SDS011;61877;48.246;9.220;2023-04-06T04:49:16;19.50;;;9.67;;
73599;SDS011;61877;48.246;9.220;2023-04-06T04:51:42;19.95;;;9.95;;
73599;SDS011;61877;48.246;9.220;2023-04-06T04:54:07;19.63;;;9.57;;
73599;SDS011;61877;48.246;9.220;2023-04-06T04:56:33;19.95;;;10.35;;
73599;SDS011;61877;48.246;9.220;2023-04-06T04:58:58;18.83;;;10.00;;
73599;SDS011;61877;48.246;9.220;2023-04-06T05:01:33;18.70;;;10.13;;
73599;SDS011;61877;48.246;9.220;2023-04-06T05:03:59;18.90;;;9.65;;
73599;SDS011;61877;48.246;9.220;2023-04-06T05:06:26;18.10;;;10.27;;
73599;SDS011;61877;48.246;9.220;2023-04-06T05:08:51;19.02;;;9.95;;
73599;SDS011;61877;48.246;9.220;2023-04-06T05:11:17;18.30;;;9.57;;
73599;SDS011;61877;48.246;9.220;2023-04-06T05:13:42;18.02;;;9.95;;
73599;SDS011;61877;48.246;9.220;2023-04-06T05:16:08;19.43;;;10.17;;
73599;SDS011;61877;48.246;9.220;2023-04-06T05:18:34;18.88;;;9.98;;
73599;SDS011;61877;48.246;9.220;2023-04-06T05:32:37;18.67;;;9.43;;
73599;SDS011;61877;48.246;9.220;2023-04-06T05:40:47;19.42;;;9.95;;
73599;SDS011;61877;48.246;9.220;2023-04-06T05:43:12;18.87;;;9.53;;
73599;SDS011;61877;48.246;9.220;2023-04-06T05:45:38;18.53;;;9.60;;
73599;SDS011;61877;48.246;9.220;2023-04-06T05:48:06;18.00;;;9.70;;
73599;SDS011;61877;48.246;9.220;2023-04-06T06:15:06;21.17;;;10.50;;
73599;SDS011;61877;48.246;9.220;2023-04-06T06:32:57;21.27;;;10.15;;
73599;SDS011;61877;48.246;9.220;2023-04-06T06:44:34;20.08;;;10.38;;
73599;SDS011;61877;48.246;9.220;2023-04-06T06:47:10;21.90;;;10.60;;
73599;SDS011;61877;48.246;9.220;2023-04-06T06:49:52;23.90;;;11.65;;
73599;SDS011;61877;48.246;9.220;2023-04-06T06:52:24;21.57;;;10.90;;
73599;SDS011;61877;48.246;9.220;2023-04-06T06:55:02;22.50;;;11.38;;
73599;SDS011;61877;48.246;9.220;2023-04-06T06:57:32;20.17;;;10.77;;
73599;SDS011;61877;48.246;9.220;2023-04-06T07:00:00;19.77;;;9.80;;
73599;SDS011;61877;48.246;9.220;2023-04-06T07:36:49;16.23;;;8.47;;
73599;SDS011;61877;48.246;9.220;2023-04-06T07:42:21;18.67;;;8.93;;
73599;SDS011;61877;48.246;9.220;2023-04-06T08:57:28;13.82;;;6.88;;
73599;SDS011;61877;48.246;9.220;2023-04-06T08:59:56;13.30;;;6.85;;
73599;SDS011;61877;48.246;9.220;2023-04-06T09:02:23;12.57;;;6.60;;
73599;SDS011;61877;48.246;9.220;2023-04-06T09:04:52;12.50;;;6.27;;
73599;SDS011;61877;48.246;9.220;2023-04-06T09:07:19;12.80;;;6.55;;
73599;SDS011;61877;48.246;9.220;2023-04-06T09:09:46;15.10;;;6.63;;
73599;SDS011;61877;48.246;9.220;2023-04-06T09:12:21;16.50;;;6.65;;
73599;SDS011;61877;48.246;9.220;2023-04-06T09:14:51;14.25;;;6.35;;
73599;SDS011;61877;48.246;9.220;2023-04-06T09:17:21;12.60;;;6.27;;
73599;SDS011;61877;48.246;9.220;2023-04-06T09:19:48;13.15;;;6.57;;
73599;SDS011;61877;48.246;9.220;2023-04-06T09:22:15;14.07;;;6.70;;
73599;SDS011;61877;48.246;9.220;2023-04-06T09:24:42;12.85;;;6.75;;
73599;SDS011;61877;48.246;9.220;2023-04-06T09:27:11;12.98;;;6.63;;
73599;SDS011;61877;48.246;9.220;2023-04-06T09:29:37;13.13;;;6.83;;
73599;SDS011;61877;48.246;9.220;2023-04-06T09:32:06;14.55;;;6.60;;
73599;SDS011;61877;48.246;9.220;2023-04-06T09:34:33;13.15;;;6.63;;
73599;SDS011;61877;48.246;9.220;2023-04-06T09:36:59;13.80;;;6.57;;
73599;SDS011;61877;48.246;9.220;2023-04-06T09:39:28;12.10;;;6.55;;
73599;SDS011;61877;48.246;9.220;2023-04-06T09:41:54;11.87;;;5.63;;
73599;SDS011;61877;48.246;9.220;2023-04-06T09:44:21;11.30;;;5.88;;
73599;SDS011;61877;48.246;9.220;2023-04-06T09:46:47;11.88;;;6.15;;
73599;SDS011;61877;48.246;9.220;2023-04-06T09:49:16;11.05;;;5.88;;
73599;SDS011;61877;48.246;9.220;2023-04-06T09:51:45;13.70;;;6.55;;
73599;SDS011;61877;48.246;9.220;2023-04-06T09:54:15;13.13;;;6.53;;
73599;SDS011;61877;48.246;9.220;2023-04-06T09:56:47;13.05;;;6.28;;
73599;SDS011;61877;48.246;9.220;2023-04-06T09:59:21;14.15;;;7.03;;
73599;SDS011;61877;48.246;9.220;2023-04-06T10:01:56;13.20;;;6.35;;
73599;SDS011;61877;48.246;9.220;2023-04-06T10:04:30;12.38;;;6.55;;
73599;SDS011;61877;48.246;9.220;2023-04-06T10:07:06;12.47;;;6.73;;
73599;SDS011;61877;48.246;9.220;2023-04-06T10:09:33;12.35;;;6.53;;
73599;SDS011;61877;48.246;9.220;2023-04-06T10:12:03;13.40;;;7.22;;
73599;SDS011;61877;48.246;9.220;2023-04-06T10:14:30;14.27;;;7.03;;
73599;SDS011;61877;48.246;9.220;2023-04-06T10:16:56;16.38;;;7.20;;
73599;SDS011;61877;48.246;9.220;2023-04-06T10:19:30;14.03;;;6.00;;
73599;SDS011;61877;48.246;9.220;2023-04-06T10:22:05;13.23;;;6.30;;
73599;SDS011;61877;48.246;9.220;2023-04-06T10:24:33;11.82;;;6.25;;
73599;SDS011;61877;48.246;9.220;2023-04-06T10:27:01;12.25;;;6.13;;
73599;SDS011;61877;48.246;9.220;2023-04-06T10:29:41;11.50;;;6.40;;
73599;SDS011;61877;48.246;9.220;2023-04-06T10:32:07;12.27;;;6.10;;
73599;SDS011;61877;48.246;9.220;2023-04-06T10:34:35;12.52;;;6.28;;
73599;SDS011;61877;48.246;9.220;2023-04-06T10:37:10;12.43;;;6.40;;
73599;SDS011;61877;48.246;9.220;2023-04-06T10:39:45;12.43;;;6.28;;
73599;SDS011;61877;48.246;9.220;2023-04-06T10:42:12;12.02;;;6.38;;
73599;SDS011;61877;48.246;9.220;2023-04-06T10:44:42;12.48;;;6.13;;
73599;SDS011;61877;48.246;9.220;2023-04-06T10:47:15;11.15;;;5.65;;
73599;SDS011;61877;48.246;9.220;2023-04-06T10:49:43;11.40;;;6.00;;
73599;SDS011;61877;48.246;9.220;2023-04-06T10:52:10;11.98;;;5.57;;
73599;SDS011;61877;48.246;9.220;2023-04-06T10:54:35;11.52;;;6.07;;
73599;SDS011;61877;48.246;9.220;2023-04-06T10:57:08;10.70;;;5.93;;
73599;SDS011;61877;48.246;9.220;2023-04-06T10:59:35;11.23;;;5.93;;
73599;SDS011;61877;48.246;9.220;2023-04-06T11:02:01;11.40;;;5.70;;
73599;SDS011;61877;48.246;9.220;2023-04-06T11:04:28;12.48;;;6.40;;
73599;SDS011;61877;48.246;9.220;2023-04-06T11:06:56;12.20;;;6.15;;
73599;SDS011;61877;48.246;9.220;2023-04-06T11:09:23;11.75;;;5.63;;
73599;SDS011;61877;48.246;9.220;2023-04-06T11:11:51;11.07;;;5.85;;
73599;SDS011;61877;48.246;9.220;2023-04-06T11:14:17;10.97;;;5.90;;
73599;SDS011;61877;48.246;9.220;2023-04-06T11:16:45;11.70;;;5.78;;
73599;SDS011;61877;48.246;9.220;2023-04-06T11:19:11;11.40;;;5.60;;
73599;SDS011;61877;48.246;9.220;2023-04-06T11:21:39;10.30;;;5.53;;
73599;SDS011;61877;48.246;9.220;2023-04-06T11:24:09;12.02;;;6.43;;
73599;SDS011;61877;48.246;9.220;2023-04-06T11:26:37;11.55;;;6.03;;
73599;SDS011;61877;48.246;9.220;2023-04-06T11:29:03;11.77;;;5.88;;
73599;SDS011;61877;48.246;9.220;2023-04-06T11:31:37;11.63;;;6.13;;
73599;SDS011;61877;48.246;9.220;2023-04-06T11:34:10;11.10;;;5.95;;
73599;SDS011;61877;48.246;9.220;2023-04-06T11:36:39;11.90;;;5.70;;
73599;SDS011;61877;48.246;9.220;2023-04-06T11:39:10;11.05;;;5.78;;
73599;SDS011;61877;48.246;9.220;2023-04-06T11:41:39;10.68;;;5.65;;
73599;SDS011;61877;48.246;9.220;2023-04-06T11:44:07;10.60;;;5.70;;
73599;SDS011;61877;48.246;9.220;2023-04-06T11:46:34;10.80;;;5.90;;
73599;SDS011;61877;48.246;9.220;2023-04-06T11:49:00;10.77;;;5.80;;
73599;SDS011;61877;48.246;9.220;2023-04-06T11:51:26;11.05;;;5.78;;
73599;SDS011;61877;48.246;9.220;2023-04-06T11:53:52;10.80;;;5.80;;
73599;SDS011;61877;48.246;9.220;2023-04-06T11:56:28;10.43;;;5.83;;
73599;SDS011;61877;48.246;9.220;2023-04-06T11:58:55;11.63;;;6.35;;
73599;SDS011;61877;48.246;9.220;2023-04-06T12:01:23;12.65;;;6.28;;
73599;SDS011;61877;48.246;9.220;2023-04-06T12:03:53;11.20;;;5.88;;
73599;SDS011;61877;48.246;9.220;2023-04-06T12:06:19;11.88;;;6.55;;
73599;SDS011;61877;48.246;9.220;2023-04-06T12:08:44;12.30;;;5.93;;
73599;SDS011;61877;48.246;9.220;2023-04-06T12:11:10;12.90;;;7.00;;
73599;SDS011;61877;48.246;9.220;2023-04-06T12:13:37;11.33;;;5.97;;
73599;SDS011;61877;48.246;9.220;2023-04-06T12:16:03;11.07;;;6.07;;
73599;SDS011;61877;48.246;9.220;2023-04-06T12:18:29;11.90;;;6.18;;
73599;SDS011;61877;48.246;9.220;2023-04-06T12:20:59;11.77;;;6.18;;
73599;SDS011;61877;48.246;9.220;2023-04-06T12:23:25;12.17;;;5.90;;
73599;SDS011;61877;48.246;9.220;2023-04-06T12:25:54;9.65;;;5.30;;
73599;SDS011;61877;48.246;9.220;2023-04-06T12:28:20;11.00;;;5.85;;
73599;SDS011;61877;48.246;9.220;2023-04-06T12:30:48;12.55;;;6.22;;
73599;SDS011;61877;48.246;9.220;2023-04-06T12:33:14;11.32;;;5.70;;
73599;SDS011;61877;48.246;9.220;2023-04-06T12:35:40;11.67;;;5.73;;
73599;SDS011;61877;48.246;9.220;2023-04-06T12:38:07;10.50;;;5.53;;
73599;SDS011;61877;48.246;9.220;2023-04-06T12:40:37;9.50;;;4.87;;
73599;SDS011;61877;48.246;9.220;2023-04-06T12:43:04;11.10;;;5.53;;
73599;SDS011;61877;48.246;9.220;2023-04-06T12:45:33;12.15;;;6.20;;
73599;SDS011;61877;48.246;9.220;2023-04-06T12:48:02;11.05;;;5.53;;
73599;SDS011;61877;48.246;9.220;2023-04-06T12:50:27;12.73;;;5.30;;
73599;SDS011;61877;48.246;9.220;2023-04-06T12:52:54;10.93;;;5.47;;
73599;SDS011;61877;48.246;9.220;2023-04-06T12:55:29;10.23;;;5.25;;
73599;SDS011;61877;48.246;9.220;2023-04-06T12:57:56;10.48;;;4.72;;
73599;SDS011;61877;48.246;9.220;2023-04-06T13:00:22;10.77;;;4.90;;
73599;SDS011;61877;48.246;9.220;2023-04-06T13:02:49;10.33;;;4.97;;
73599;SDS011;61877;48.246;9.220;2023-04-06T13:05:16;11.18;;;5.07;;
73599;SDS011;61877;48.246;9.220;2023-04-06T13:07:42;9.70;;;5.10;;
73599;SDS011;61877;48.246;9.220;2023-04-06T13:10:08;10.18;;;5.10;;
73599;SDS011;61877;48.246;9.220;2023-04-06T13:12:34;9.73;;;4.63;;
73599;SDS011;61877;48.246;9.220;2023-04-06T13:15:01;10.85;;;4.75;;
73599;SDS011;61877;48.246;9.220;2023-04-06T13:17:28;9.90;;;5.30;;
73599;SDS011;61877;48.246;9.220;2023-04-06T13:19:54;9.88;;;4.68;;
73599;SDS011;61877;48.246;9.220;2023-04-06T13:22:25;10.05;;;4.95;;
73599;SDS011;61877;48.246;9.220;2023-04-06T13:24:51;10.77;;;4.57;;
73599;SDS011;61877;48.246;9.220;2023-04-06T13:27:17;9.73;;;4.32;;
73599;SDS011;61877;48.246;9.220;2023-04-06T13:29:43;9.48;;;4.35;;
73599;SDS011;61877;48.246;9.220;2023-04-06T13:32:09;9.17;;;4.40;;
73599;SDS011;61877;48.246;9.220;2023-04-06T13:34:35;10.18;;;4.53;;
73599;SDS011;61877;48.246;9.220;2023-04-06T13:37:02;9.85;;;4.70;;
73599;SDS011;61877;48.246;9.220;2023-04-06T13:39:29;8.80;;;4.60;;
73599;SDS011;61877;48.246;9.220;2023-04-06T13:41:58;9.03;;;4.17;;
73599;SDS011;61877;48.246;9.220;2023-04-06T13:44:24;8.90;;;4.20;;
73599;SDS011;61877;48.246;9.220;2023-04-06T13:46:54;9.43;;;4.40;;
73599;SDS011;61877;48.246;9.220;2023-04-06T13:49:20;9.00;;;3.85;;
73599;SDS011;61877;48.246;9.220;2023-04-06T13:51:46;8.23;;;3.85;;
73599;SDS011;61877;48.246;9.220;2023-04-06T13:54:12;10.33;;;4.00;;
73599;SDS011;61877;48.246;9.220;2023-04-06T13:56:39;8.40;;;4.15;;
73599;SDS011;61877;48.246;9.220;2023-04-06T13:59:05;8.60;;;4.10;;
73599;SDS011;61877;48.246;9.220;2023-04-06T14:01:31;8.27;;;3.80;;
73599;SDS011;61877;48.246;9.220;2023-04-06T14:03:57;14.40;;;7.77;;
73599;SDS011;61877;48.246;9.220;2023-04-06T14:06:23;9.57;;;5.17;;
73599;SDS011;61877;48.246;9.220;2023-04-06T14:08:49;8.85;;;4.50;;
73599;SDS011;61877;48.246;9.220;2023-04-06T14:11:15;8.87;;;4.20;;
73599;SDS011;61877;48.246;9.220;2023-04-06T14:13:42;8.75;;;3.90;;
73599;SDS011;61877;48.246;9.220;2023-04-06T14:16:08;9.85;;;4.22;;
73599;SDS011;61877;48.246;9.220;2023-04-06T14:18:35;9.63;;;4.47;;
73599;SDS011;61877;48.246;9.220;2023-04-06T14:21:11;9.02;;;4.00;;
73599;SDS011;61877;48.246;9.220;2023-04-06T14:23:37;8.45;;;4.15;;
73599;SDS011;61877;48.246;9.220;2023-04-06T14:26:04;8.48;;;4.30;;
73599;SDS011;61877;48.246;9.220;2023-04-06T14:28:31;10.95;;;4.90;;
73599;SDS011;61877;48.246;9.220;2023-04-06T14:31:00;11.20;;;5.40;;
73599;SDS011;61877;48.246;9.220;2023-04-06T14:33:27;9.48;;;4.50;;
73599;SDS011;61877;48.246;9.220;2023-04-06T14:35:55;9.50;;;4.40;;
73599;SDS011;61877;48.246;9.220;2023-04-06T14:38:20;10.07;;;4.83;;
73599;SDS011;61877;48.246;9.220;2023-04-06T14:40:50;8.60;;;3.92;;
73599;SDS011;61877;48.246;9.220;2023-04-06T14:43:16;8.70;;;4.07;;
73599;SDS011;61877;48.246;9.220;2023-04-06T14:45:42;8.73;;;3.80;;
73599;SDS011;61877;48.246;9.220;2023-04-06T14:48:10;9.30;;;4.28;;
73599;SDS011;61877;48.246;9.220;2023-04-06T14:50:36;7.82;;;3.92;;
73599;SDS011;61877;48.246;9.220;2023-04-06T14:53:04;8.35;;;4.22;;
73599;SDS011;61877;48.246;9.220;2023-04-06T14:55:30;9.30;;;4.60;;
73599;SDS011;61877;48.246;9.220;2023-04-06T14:57:57;8.27;;;4.20;;
73599;SDS011;61877;48.246;9.220;2023-04-06T15:00:23;9.80;;;4.75;;
73599;SDS011;61877;48.246;9.220;2023-04-06T15:02:48;10.70;;;5.20;;
73599;SDS011;61877;48.246;9.220;2023-04-06T15:05:16;9.02;;;4.82;;
73599;SDS011;61877;48.246;9.220;2023-04-06T15:07:42;9.40;;;4.90;;
73599;SDS011;61877;48.246;9.220;2023-04-06T15:10:09;10.52;;;6.15;;
73599;SDS011;61877;48.246;9.220;2023-04-06T15:12:36;9.55;;;4.97;;
73599;SDS011;61877;48.246;9.220;2023-04-06T15:15:03;8.93;;;4.30;;
73599;SDS011;61877;48.246;9.220;2023-04-06T15:17:33;8.85;;;4.85;;
73599;SDS011;61877;48.246;9.220;2023-04-06T15:20:00;9.70;;;4.43;;
73599;SDS011;61877;48.246;9.220;2023-04-06T15:22:29;9.23;;;4.30;;
73599;SDS011;61877;48.246;9.220;2023-04-06T15:24:56;9.45;;;4.53;;
73599;SDS011;61877;48.246;9.220;2023-04-06T15:27:22;10.77;;;5.20;;
73599;SDS011;61877;48.246;9.220;2023-04-06T15:29:49;9.60;;;5.30;;
73599;SDS011;61877;48.246;9.220;2023-04-06T15:32:15;8.67;;;4.23;;
73599;SDS011;61877;48.246;9.220;2023-04-06T15:34:41;9.32;;;4.82;;
73599;SDS011;61877;48.246;9.220;2023-04-06T15:37:10;10.30;;;5.20;;
73599;SDS011;61877;48.246;9.220;2023-04-06T15:39:37;8.60;;;4.25;;
73599;SDS011;61877;48.246;9.220;2023-04-06T15:42:03;13.80;;;7.03;;
73599;SDS011;61877;48.246;9.220;2023-04-06T15:44:29;9.05;;;4.18;;
73599;SDS011;61877;48.246;9.220;2023-04-06T15:46:56;11.55;;;6.43;;
73599;SDS011;61877;48.246;9.220;2023-04-06T15:49:21;9.55;;;4.55;;
73599;SDS011;61877;48.246;9.220;2023-04-06T15:51:51;12.43;;;5.72;;
73599;SDS011;61877;48.246;9.220;2023-04-06T15:54:18;9.47;;;4.20;;
73599;SDS011;61877;48.246;9.220;2023-04-06T15:56:45;8.65;;;3.97;;
73599;SDS011;61877;48.246;9.220;2023-04-06T15:59:13;18.85;;;9.13;;
73599;SDS011;61877;48.246;9.220;2023-04-06T16:01:40;11.95;;;4.60;;
73599;SDS011;61877;48.246;9.220;2023-04-06T16:04:07;9.68;;;4.68;;
73599;SDS011;61877;48.246;9.220;2023-04-06T16:06:34;12.03;;;5.27;;
73599;SDS011;61877;48.246;9.220;2023-04-06T16:09:02;11.13;;;4.90;;
73599;SDS011;61877;48.246;9.220;2023-04-06T16:11:32;9.85;;;4.70;;
73599;SDS011;61877;48.246;9.220;2023-04-06T16:14:00;10.20;;;4.90;;
73599;SDS011;61877;48.246;9.220;2023-04-06T16:16:27;10.00;;;4.85;;
73599;SDS011;61877;48.246;9.220;2023-04-06T16:19:07;11.63;;;5.47;;
73599;SDS011;61877;48.246;9.220;2023-04-06T16:21:35;11.35;;;5.13;;
73599;SDS011;61877;48.246;9.220;2023-04-06T16:24:01;9.88;;;4.47;;
73599;SDS011;61877;48.246;9.220;2023-04-06T16:26:27;12.52;;;5.57;;
73599;SDS011;61877;48.246;9.220;2023-04-06T16:28:55;10.77;;;5.25;;
73599;SDS011;61877;48.246;9.220;2023-04-06T16:31:24;10.80;;;4.30;;
73599;SDS011;61877;48.246;9.220;2023-04-06T16:33:51;10.13;;;5.18;;
73599;SDS011;61877;48.246;9.220;2023-04-06T16:36:21;10.10;;;4.93;;
73599;SDS011;61877;48.246;9.220;2023-04-06T16:38:47;9.85;;;4.40;;
73599;SDS011;61877;48.246;9.220;2023-04-06T16:41:13;10.40;;;4.20;;
73599;SDS011;61877;48.246;9.220;2023-04-06T16:43:39;9.10;;;4.17;;
73599;SDS011;61877;48.246;9.220;2023-04-06T16:46:05;9.90;;;3.83;;
73599;SDS011;61877;48.246;9.220;2023-04-06T16:48:32;10.70;;;5.00;;
73599;SDS011;61877;48.246;9.220;2023-04-06T16:51:04;21.40;;;11.25;;
73599;SDS011;61877;48.246;9.220;2023-04-06T16:53:30;14.77;;;7.53;;
73599;SDS011;61877;48.246;9.220;2023-04-06T16:56:06;10.02;;;4.63;;
73599;SDS011;61877;48.246;9.220;2023-04-06T16:58:34;9.65;;;4.20;;
73599;SDS011;61877;48.246;9.220;2023-04-06T17:01:00;10.47;;;4.67;;
73599;SDS011;61877;48.246;9.220;2023-04-06T17:03:28;10.32;;;4.38;;
73599;SDS011;61877;48.246;9.220;2023-04-06T17:05:57;10.07;;;4.67;;
73599;SDS011;61877;48.246;9.220;2023-04-06T17:08:26;11.68;;;5.07;;
73599;SDS011;61877;48.246;9.220;2023-04-06T17:10:54;10.85;;;4.80;;
73599;SDS011;61877;48.246;9.220;2023-04-06T17:13:20;11.00;;;4.55;;
73599;SDS011;61877;48.246;9.220;2023-04-06T17:15:45;21.00;;;6.57;;
73599;SDS011;61877;48.246;9.220;2023-04-06T17:18:11;9.77;;;4.43;;
73599;SDS011;61877;48.246;9.220;2023-04-06T17:20:41;9.85;;;4.15;;
73599;SDS011;61877;48.246;9.220;2023-04-06T17:23:21;9.27;;;4.20;;
73599;SDS011;61877;48.246;9.220;2023-04-06T17:25:49;10.25;;;4.20;;
73599;SDS011;61877;48.246;9.220;2023-04-06T17:28:29;11.82;;;4.85;;
73599;SDS011;61877;48.246;9.220;2023-04-06T17:30:57;9.40;;;4.15;;
73599;SDS011;61877;48.246;9.220;2023-04-06T17:33:44;9.43;;;4.10;;